createdAt,value
2023-01-07T00:01:40.349Z,100273.59
2023-01-07T00:04:10.475Z,100275.28
2023-01-07T00:06:39.697Z,100274.09
2023-01-07T00:09:08.273Z,100275.15
2023-01-07T00:11:37.248Z,100279.84
2023-01-07T00:14:06.745Z,100284.58
2023-01-07T00:16:35.144Z,100286.29
2023-01-07T00:19:04.226Z,100286.88
2023-01-07T00:21:32.176Z,100288.99
2023-01-07T00:24:01.114Z,100289.62
2023-01-07T00:26:33.115Z,100286.86
2023-01-07T00:29:02.161Z,100288.04
2023-01-07T00:31:31.912Z,100289.21
2023-01-07T00:34:00.363Z,100294.23
2023-01-07T00:36:29.490Z,100290.31
2023-01-07T00:38:58.138Z,100288.20
2023-01-07T00:41:26.556Z,100292.34
2023-01-07T00:43:54.821Z,100295.84
2023-01-07T00:46:23.144Z,100294.45
2023-01-07T00:48:51.377Z,100294.08
2023-01-07T00:51:19.628Z,100295.64
2023-01-07T00:53:47.739Z,100303.34
2023-01-07T00:56:17.625Z,100303.89
2023-01-07T00:58:45.957Z,100303.86
2023-01-07T01:01:14.435Z,100314.04
2023-01-07T01:03:42.389Z,100312.88
2023-01-07T01:06:14.361Z,100312.02
2023-01-07T01:08:46.074Z,100312.48
2023-01-07T01:11:15.527Z,100309.08
2023-01-07T01:13:44.424Z,100306.58
2023-01-07T01:16:13.968Z,100311.67
2023-01-07T01:18:42.363Z,100310.38
2023-01-07T01:21:11.658Z,100308.10
2023-01-07T01:23:39.864Z,100303.07
2023-01-07T01:26:09.242Z,100303.47
2023-01-07T01:28:37.559Z,100302.61
2023-01-07T01:31:05.782Z,100305.73
2023-01-07T01:33:42.714Z,100304.40
2023-01-07T01:36:12.889Z,100305.92
2023-01-07T01:38:41.525Z,100307.34
2023-01-07T01:41:09.519Z,100308.39
2023-01-07T01:43:41.330Z,100306.33
2023-01-07T01:46:10.047Z,100301.80
2023-01-07T01:48:39.705Z,100307.29
2023-01-07T01:51:08.807Z,100307.55
2023-01-07T01:53:37.478Z,100308.24
2023-01-07T01:56:14.263Z,100304.73
2023-01-07T01:58:45.321Z,100303.20
2023-01-07T02:01:13.838Z,100302.11
2023-01-07T02:03:41.968Z,100299.90
2023-01-07T02:06:21.773Z,100302.27
2023-01-07T02:08:50.083Z,100299.62
2023-01-07T02:11:27.374Z,100299.45
2023-01-07T02:14:03.236Z,100296.58
2023-01-07T02:16:36.997Z,100295.79
2023-01-07T02:19:04.741Z,100299.30
2023-01-07T02:21:46.588Z,100299.95
2023-01-07T02:24:30.337Z,100296.98
2023-01-07T02:27:04.583Z,100293.23
2023-01-07T02:29:48.295Z,100293.02
2023-01-07T02:32:32.058Z,100291.87
2023-01-07T02:34:59.911Z,100291.89
2023-01-07T02:37:44.066Z,100291.06
2023-01-07T02:40:27.956Z,100297.36
2023-01-07T02:43:04.708Z,100296.33
2023-01-07T02:45:48.587Z,100294.45
2023-01-07T02:48:18.097Z,100294.77
2023-01-07T02:50:45.926Z,100294.01
2023-01-07T02:53:16.433Z,100290.89
2023-01-07T02:55:47.874Z,100286.50
2023-01-07T02:58:19.033Z,100292.23
2023-01-07T03:00:58.498Z,100288.45
2023-01-07T03:03:42.307Z,100287.79
2023-01-07T03:06:13.319Z,100294.23
2023-01-07T03:08:49.184Z,100292.66
2023-01-07T03:11:19.733Z,100292.83
2023-01-07T03:13:56.390Z,100292.04
2023-01-07T03:16:29.441Z,100292.24
2023-01-07T03:19:05.611Z,100294.39
2023-01-07T03:21:34.884Z,100295.86
2023-01-07T03:24:03.170Z,100297.95
2023-01-07T03:26:33.304Z,100303.95
2023-01-07T03:29:02.861Z,100308.41
2023-01-07T03:31:32.122Z,100308.43
2023-01-07T03:34:02.792Z,100312.47
2023-01-07T03:36:39.388Z,100311.40
2023-01-07T03:39:08.903Z,100315.92
2023-01-07T03:41:54.243Z,100319.77
2023-01-07T03:44:22.007Z,100319.16
2023-01-07T03:46:50.743Z,100321.81
2023-01-07T03:49:18.889Z,100321.90
2023-01-07T03:51:49.314Z,100317.78
2023-01-07T03:54:18.027Z,100321.80
2023-01-07T03:56:46.583Z,100323.89
2023-01-07T03:59:14.352Z,100326.91
2023-01-07T04:01:43.144Z,100332.01
2023-01-07T04:04:11.339Z,100330.57
2023-01-07T04:06:39.199Z,100327.30
2023-01-07T04:09:07.586Z,100328.30
2023-01-07T04:11:35.638Z,100330.74
2023-01-07T04:14:03.443Z,100334.81
2023-01-07T04:16:31.655Z,100332.64
2023-01-07T04:19:00.091Z,100335.77
2023-01-07T04:21:27.923Z,100337.27
2023-01-07T04:23:55.940Z,100333.48
2023-01-07T04:26:23.920Z,100332.23
2023-01-07T04:28:52.192Z,100334.86
2023-01-07T04:31:20.217Z,100335.45
2023-01-07T04:33:48.171Z,100334.27
2023-01-07T04:36:16.006Z,100333.04
2023-01-07T04:38:45.038Z,100337.77
2023-01-07T04:41:13.012Z,100334.45
2023-01-07T04:43:40.965Z,100339.31
2023-01-07T04:46:09.201Z,100340.77
2023-01-07T04:48:37.467Z,100337.11
2023-01-07T04:51:05.609Z,100340.35
2023-01-07T04:53:34.122Z,100341.72
2023-01-07T04:56:02.819Z,100342.77
2023-01-07T04:58:30.992Z,100349.30
2023-01-07T05:00:59.436Z,100354.52
2023-01-07T05:03:27.976Z,100360.11
2023-01-07T05:05:56.904Z,100356.98
2023-01-07T05:08:24.580Z,100355.76
2023-01-07T05:10:52.836Z,100353.68
2023-01-07T05:13:22.164Z,100359.20
2023-01-07T05:15:50.135Z,100354.38
2023-01-07T05:18:19.847Z,100359.95
2023-01-07T05:20:48.248Z,100354.42
2023-01-07T05:23:16.365Z,100354.73
2023-01-07T05:25:44.871Z,100355.24
2023-01-07T05:28:13.081Z,100355.27
2023-01-07T05:30:41.246Z,100356.66
2023-01-07T05:33:09.415Z,100355.91
2023-01-07T05:35:37.345Z,100354.91
2023-01-07T05:38:05.286Z,100355.11
2023-01-07T05:40:33.548Z,100355.55
2023-01-07T05:43:01.371Z,100351.05
2023-01-07T05:45:29.525Z,100350.72
2023-01-07T05:47:57.318Z,100355.46
2023-01-07T05:50:25.331Z,100358.23
2023-01-07T05:52:53.127Z,100358.29
2023-01-07T05:55:20.932Z,100355.91
2023-01-07T05:57:48.723Z,100361.36
2023-01-07T06:00:16.819Z,100368.52
2023-01-07T06:02:44.855Z,100365.33
2023-01-07T06:05:12.755Z,100367.04
2023-01-07T06:07:40.552Z,100371.50
2023-01-07T06:10:08.465Z,100371.69
2023-01-07T06:12:36.292Z,100370.66
2023-01-07T06:15:05.209Z,100377.87
2023-01-07T06:17:33.695Z,100375.69
2023-01-07T06:20:01.621Z,100376.80
2023-01-07T06:22:29.411Z,100379.02
2023-01-07T06:24:57.189Z,100382.45
2023-01-07T06:27:25.009Z,100381.74
2023-01-07T06:29:52.815Z,100383.59
2023-01-07T06:32:20.614Z,100388.20
2023-01-07T06:34:48.379Z,100390.41
2023-01-07T06:37:17.855Z,100396.60
2023-01-07T06:39:45.642Z,100398.95
2023-01-07T06:42:13.402Z,100398.52
2023-01-07T06:44:41.416Z,100404.16
2023-01-07T06:47:09.178Z,100407.11
2023-01-07T06:49:36.971Z,100406.64
2023-01-07T06:52:04.857Z,100410.50
2023-01-07T06:54:32.548Z,100415.47
2023-01-07T06:57:00.247Z,100413.75
2023-01-07T06:59:28.046Z,100415.23
2023-01-07T07:01:55.866Z,100417.27
2023-01-07T07:04:23.849Z,100418.52
2023-01-07T07:06:51.610Z,100423.59
2023-01-07T07:09:19.408Z,100422.12
2023-01-07T07:11:47.143Z,100421.58
2023-01-07T07:14:14.951Z,100424.36
2023-01-07T07:16:42.634Z,100426.30
2023-01-07T07:19:10.486Z,100431.04
2023-01-07T07:21:38.275Z,100431.13
2023-01-07T07:24:06.221Z,100427.70
2023-01-07T07:26:33.908Z,100434.35
2023-01-07T07:29:01.833Z,100435.73
2023-01-07T07:31:29.713Z,100434.30
2023-01-07T07:33:57.552Z,100437.20
2023-01-07T07:36:25.256Z,100436.70
2023-01-07T07:38:53.032Z,100441.70
2023-01-07T07:41:21.408Z,100442.62
2023-01-07T07:43:49.957Z,100442.67
2023-01-07T07:46:17.894Z,100444.55
2023-01-07T07:48:48.204Z,100446.77
2023-01-07T07:51:16.257Z,100447.67
2023-01-07T07:53:44.027Z,100453.83
2023-01-07T07:56:11.787Z,100452.55
2023-01-07T07:58:39.602Z,100452.95
2023-01-07T08:01:07.484Z,100457.03
2023-01-07T08:03:35.951Z,100462.00
2023-01-07T08:06:05.100Z,100461.70
2023-01-07T08:08:33.082Z,100467.55
2023-01-07T08:11:02.588Z,100468.25
2023-01-07T08:13:31.067Z,100468.48
2023-01-07T08:15:58.981Z,100464.05
2023-01-07T08:18:26.908Z,100464.88
2023-01-07T08:20:55.689Z,100466.65
2023-01-07T08:23:23.974Z,100468.70
2023-01-07T08:25:51.773Z,100471.65
2023-01-07T08:28:19.594Z,100476.12
2023-01-07T08:30:47.413Z,100473.00
2023-01-07T08:33:15.170Z,100472.42
2023-01-07T08:35:44.219Z,100476.59
2023-01-07T08:38:12.126Z,100478.33
2023-01-07T08:40:39.945Z,100474.55
2023-01-07T08:43:09.048Z,100477.89
2023-01-07T08:45:36.749Z,100480.00
2023-01-07T08:48:04.949Z,100478.31
2023-01-07T08:50:33.142Z,100478.29
2023-01-07T08:53:01.502Z,100478.61
2023-01-07T08:55:29.308Z,100476.57
2023-01-07T08:57:57.318Z,100484.73
2023-01-07T09:00:25.784Z,100483.41
2023-01-07T09:02:53.590Z,100483.72
2023-01-07T09:05:21.562Z,100481.28
2023-01-07T09:07:51.547Z,100485.25
2023-01-07T09:10:19.599Z,100484.11
2023-01-07T09:12:47.406Z,100483.98
2023-01-07T09:15:15.589Z,100482.15
2023-01-07T09:17:43.506Z,100482.70
2023-01-07T09:20:11.269Z,100485.01
2023-01-07T09:22:39.076Z,100482.29
2023-01-07T09:25:07.137Z,100479.49
2023-01-07T09:27:35.111Z,100480.89
2023-01-07T09:30:03.355Z,100480.73
2023-01-07T09:32:31.135Z,100479.72
2023-01-07T09:34:58.907Z,100473.66
2023-01-07T09:37:26.705Z,100476.54
2023-01-07T09:39:54.619Z,100478.52
2023-01-07T09:42:26.780Z,100480.27
2023-01-07T09:44:54.568Z,100483.52
2023-01-07T09:47:24.807Z,100484.80
2023-01-07T09:49:55.574Z,100478.91
2023-01-07T09:52:29.847Z,100479.73
2023-01-07T09:55:01.898Z,100478.36
2023-01-07T09:57:29.664Z,100480.81
2023-01-07T09:59:57.516Z,100482.24
2023-01-07T10:02:31.415Z,100486.60
2023-01-07T10:04:59.928Z,100483.40
2023-01-07T10:07:30.849Z,100480.56
2023-01-07T10:10:14.515Z,100477.18
2023-01-07T10:12:42.260Z,100482.16
2023-01-07T10:15:27.050Z,100479.15
2023-01-07T10:17:58.045Z,100477.70
2023-01-07T10:20:26.549Z,100468.50
2023-01-07T10:23:00.806Z,100464.38
2023-01-07T10:25:32.142Z,100462.77
2023-01-07T10:28:03.112Z,100466.73
2023-01-07T10:30:34.526Z,100469.27
2023-01-07T10:33:12.278Z,100461.97
2023-01-07T10:35:41.114Z,100454.67
2023-01-07T10:38:14.007Z,100452.85
2023-01-07T10:40:44.132Z,100458.06
2023-01-07T10:43:27.773Z,100458.73
2023-01-07T10:46:11.661Z,100464.09
2023-01-07T10:48:42.482Z,100454.48
2023-01-07T10:51:17.785Z,100453.11
2023-01-07T10:54:01.591Z,100455.23
2023-01-07T10:56:38.003Z,100446.88
2023-01-07T10:59:05.775Z,100448.55
2023-01-07T11:01:35.620Z,100447.67
2023-01-07T11:04:03.960Z,100437.17
2023-01-07T11:06:34.471Z,100437.70
2023-01-07T11:09:04.733Z,100438.70
2023-01-07T11:11:33.290Z,100438.83
2023-01-07T11:14:03.297Z,100438.48
2023-01-07T11:16:33.881Z,100441.23
2023-01-07T11:19:02.541Z,100433.71
2023-01-07T11:21:46.467Z,100433.71
2023-01-07T11:24:31.225Z,100436.52
2023-01-07T11:27:04.416Z,100433.58
2023-01-07T11:29:38.113Z,100433.44
2023-01-07T11:32:07.153Z,100426.86
2023-01-07T11:34:34.923Z,100420.34
2023-01-07T11:37:03.912Z,100417.13
2023-01-07T11:39:35.681Z,100410.00
2023-01-07T11:42:35.356Z,100406.42
2023-01-07T11:45:13.193Z,100401.30
2023-01-07T11:47:48.885Z,100399.35
2023-01-07T11:50:43.069Z,100392.84
2023-01-07T11:53:13.922Z,100396.46
2023-01-07T11:55:57.748Z,100390.70
2023-01-07T11:58:30.629Z,100391.14
2023-01-07T12:01:03.106Z,100391.73
2023-01-07T12:03:31.621Z,100392.20
2023-01-07T12:06:05.845Z,100391.88
2023-01-07T12:08:34.131Z,100379.31
2023-01-07T12:11:09.793Z,100381.38
2023-01-07T12:13:39.987Z,100376.23
2023-01-07T12:16:08.741Z,100375.57
2023-01-07T12:18:42.396Z,100373.92
2023-01-07T12:21:26.244Z,100377.54
2023-01-07T12:24:11.000Z,100380.40
2023-01-07T12:26:54.934Z,100378.55
2023-01-07T12:29:25.829Z,100380.69
2023-01-07T12:32:05.848Z,100383.23
2023-01-07T12:34:47.035Z,100383.42
2023-01-07T12:37:32.185Z,100386.69
2023-01-07T12:40:10.705Z,100389.64
2023-01-07T12:42:40.903Z,100388.69
2023-01-07T12:45:24.686Z,100384.60
2023-01-07T12:47:55.020Z,100383.36
2023-01-07T12:50:33.705Z,100388.79
2023-01-07T12:53:05.482Z,100387.41
2023-01-07T12:55:37.782Z,100385.73
2023-01-07T12:58:21.471Z,100385.48
2023-01-07T13:00:55.078Z,100373.27
2023-01-07T13:03:38.836Z,100371.60
2023-01-07T13:06:22.574Z,100371.27
2023-01-07T13:08:54.682Z,100366.17
2023-01-07T13:12:01.931Z,100362.88
2023-01-07T13:14:36.125Z,100356.83
2023-01-07T13:17:14.368Z,100358.61
2023-01-07T13:19:42.328Z,100361.64
2023-01-07T13:22:35.920Z,100362.17
2023-01-07T13:25:20.135Z,100361.89
2023-01-07T13:28:04.091Z,100359.45
2023-01-07T13:30:37.840Z,100367.13
2023-01-07T13:33:11.982Z,100370.70
2023-01-07T13:35:55.654Z,100369.36
2023-01-07T13:38:23.416Z,100374.41
2023-01-07T13:40:51.128Z,100377.75
2023-01-07T13:43:29.342Z,100375.70
2023-01-07T13:46:00.353Z,100378.98
2023-01-07T13:48:28.670Z,100377.21
2023-01-07T13:50:56.465Z,100385.20
2023-01-07T13:53:24.178Z,100389.13
2023-01-07T13:55:52.422Z,100399.59
2023-01-07T13:58:36.190Z,100403.24
2023-01-07T14:01:08.889Z,100408.17
2023-01-07T14:03:41.904Z,100402.91
2023-01-07T14:06:25.667Z,100403.18
2023-01-07T14:08:58.680Z,100400.45
2023-01-07T14:11:29.511Z,100396.98
2023-01-07T14:13:57.240Z,100394.91
2023-01-07T14:16:41.920Z,100395.46
2023-01-07T14:19:12.747Z,100398.60
2023-01-07T14:21:48.672Z,100398.55
2023-01-07T14:24:30.692Z,100402.72
2023-01-07T14:26:58.507Z,100413.14
2023-01-07T14:29:29.410Z,100412.27
2023-01-07T14:32:13.358Z,100413.95
2023-01-07T14:34:41.508Z,100422.42
2023-01-07T14:37:14.846Z,100423.76
2023-01-07T14:39:44.257Z,100423.39
2023-01-07T14:42:18.387Z,100421.83
2023-01-07T14:44:50.017Z,100424.23
2023-01-07T14:47:33.652Z,100428.77
2023-01-07T14:50:18.832Z,100426.49
2023-01-07T14:53:09.908Z,100428.86
2023-01-07T14:55:49.706Z,100420.85
2023-01-07T14:58:30.707Z,100416.92
2023-01-07T15:01:05.178Z,100412.05
2023-01-07T15:03:32.892Z,100413.81
2023-01-07T15:06:16.768Z,100407.24
2023-01-07T15:09:03.796Z,100399.83
2023-01-07T15:11:48.883Z,100400.69
2023-01-07T15:14:37.214Z,100401.55
2023-01-07T15:17:05.244Z,100398.99
2023-01-07T15:19:36.933Z,100398.68
2023-01-07T15:22:20.546Z,100394.39
2023-01-07T15:25:00.750Z,100394.34
2023-01-07T15:27:32.316Z,100399.56
2023-01-07T15:30:02.612Z,100397.97
2023-01-07T15:32:48.569Z,100396.98
2023-01-07T15:35:19.460Z,100388.36
2023-01-07T15:37:48.498Z,100389.46
2023-01-07T15:40:17.847Z,100388.77
2023-01-07T15:42:46.635Z,100392.20
2023-01-07T15:45:19.053Z,100392.53
2023-01-07T15:47:47.119Z,100398.48
2023-01-07T15:50:30.856Z,100394.22
2023-01-07T15:53:00.354Z,100395.33
2023-01-07T15:55:30.469Z,100387.72
2023-01-07T15:58:03.347Z,100386.23
2023-01-07T16:00:31.715Z,100381.34
2023-01-07T16:02:59.798Z,100380.21
2023-01-07T16:05:27.931Z,100381.23
2023-01-07T16:07:59.841Z,100383.38
2023-01-07T16:10:28.990Z,100390.26
2023-01-07T16:13:04.387Z,100390.26
2023-01-07T16:15:34.413Z,100393.98
2023-01-07T16:18:04.446Z,100396.48
2023-01-07T16:20:34.954Z,100391.20
2023-01-07T16:23:02.603Z,100392.05
2023-01-07T16:25:35.732Z,100391.05
2023-01-07T16:28:04.505Z,100393.28
2023-01-07T16:30:33.577Z,100396.19
2023-01-07T16:33:01.295Z,100392.69
2023-01-07T16:35:37.332Z,100390.33
2023-01-07T16:38:05.463Z,100390.14
2023-01-07T16:40:35.215Z,100385.70
2023-01-07T16:43:04.061Z,100379.70
2023-01-07T16:45:33.528Z,100375.50
2023-01-07T16:48:21.928Z,100373.61
2023-01-07T16:50:50.111Z,100371.23
2023-01-07T16:53:25.968Z,100369.17
2023-01-07T16:56:09.627Z,100367.52
2023-01-07T16:58:55.808Z,100364.09
2023-01-07T17:01:33.500Z,100361.04
2023-01-07T17:04:07.143Z,100356.70
2023-01-07T17:06:39.976Z,100352.56
2023-01-07T17:09:19.235Z,100353.73
2023-01-07T17:11:48.179Z,100356.79
2023-01-07T17:14:32.883Z,100355.61
2023-01-07T17:17:03.379Z,100350.38
2023-01-07T17:19:37.106Z,100348.02
2023-01-07T17:22:24.721Z,100346.17
2023-01-07T17:24:52.465Z,100349.03
2023-01-07T17:27:26.939Z,100348.32
2023-01-07T17:29:54.903Z,100348.91
2023-01-07T17:32:24.309Z,100341.94
2023-01-07T17:34:52.188Z,100341.67
2023-01-07T17:37:20.051Z,100343.69
2023-01-07T17:39:49.336Z,100344.64
2023-01-07T17:42:36.863Z,100341.66
2023-01-07T17:45:05.047Z,100333.16
2023-01-07T17:47:32.831Z,100336.59
2023-01-07T17:50:01.386Z,100342.63
2023-01-07T17:52:29.108Z,100348.83
2023-01-07T17:54:56.792Z,100348.00
2023-01-07T17:57:24.688Z,100347.14
2023-01-07T17:59:52.422Z,100345.39
2023-01-07T18:02:22.909Z,100340.53
2023-01-07T18:04:50.839Z,100339.86
2023-01-07T18:07:18.514Z,100338.45
2023-01-07T18:09:46.362Z,100339.96
2023-01-07T18:12:34.270Z,100338.85
2023-01-07T18:15:02.874Z,100341.05
2023-01-07T18:17:30.751Z,100338.59
2023-01-07T18:19:58.564Z,100338.14
2023-01-07T18:22:26.287Z,100334.96
2023-01-07T18:24:54.048Z,100331.83
2023-01-07T18:27:22.452Z,100327.51
2023-01-07T18:29:50.216Z,100327.97
2023-01-07T18:32:18.101Z,100328.91
2023-01-07T18:34:45.875Z,100336.81
2023-01-07T18:37:14.964Z,100333.36
2023-01-07T18:39:42.721Z,100332.48
2023-01-07T18:42:11.400Z,100331.92
2023-01-07T18:44:39.166Z,100332.01
2023-01-07T18:47:06.984Z,100333.87
2023-01-07T18:49:34.769Z,100332.05
2023-01-07T18:52:02.526Z,100326.76
2023-01-07T18:54:32.286Z,100325.83
2023-01-07T18:57:00.112Z,100326.17
2023-01-07T18:59:27.965Z,100328.70
2023-01-07T19:01:59.463Z,100328.71
2023-01-07T19:04:27.334Z,100320.41
2023-01-07T19:06:55.289Z,100322.77
2023-01-07T19:09:23.280Z,100321.17
2023-01-07T19:11:51.028Z,100318.95
2023-01-07T19:14:18.767Z,100318.29
2023-01-07T19:16:46.706Z,100320.75
2023-01-07T19:19:14.481Z,100315.45
2023-01-07T19:21:43.417Z,100317.34
2023-01-07T19:24:11.138Z,100321.45
2023-01-07T19:26:38.932Z,100318.91
2023-01-07T19:29:06.680Z,100318.86
2023-01-07T19:31:35.483Z,100314.73
2023-01-07T19:34:04.211Z,100314.27
2023-01-07T19:36:32.241Z,100310.70
2023-01-07T19:39:00.167Z,100309.41
2023-01-07T19:41:28.443Z,100310.18
2023-01-07T19:44:00.090Z,100306.61
2023-01-07T19:46:28.354Z,100304.42
2023-01-07T19:48:56.166Z,100301.21
2023-01-07T19:51:23.887Z,100303.70
2023-01-07T19:53:51.615Z,100302.36
2023-01-07T19:56:19.357Z,100294.99
2023-01-07T19:58:47.091Z,100294.02
2023-01-07T20:01:17.829Z,100293.39
2023-01-07T20:03:46.451Z,100292.67
2023-01-07T20:06:15.699Z,100285.34
2023-01-07T20:08:43.779Z,100277.30
2023-01-07T20:11:12.170Z,100278.60
2023-01-07T20:13:40.344Z,100279.21
2023-01-07T20:16:10.547Z,100272.54
2023-01-07T20:18:48.597Z,100268.41
2023-01-07T20:21:17.812Z,100267.58
2023-01-07T20:23:46.092Z,100264.42
2023-01-07T20:26:17.311Z,100263.17
2023-01-07T20:28:45.056Z,100263.59
2023-01-07T20:31:14.605Z,100262.79
2023-01-07T20:33:43.146Z,100262.60
2023-01-07T20:36:12.596Z,100259.19
2023-01-07T20:38:40.531Z,100259.83
2023-01-07T20:41:09.506Z,100257.08
2023-01-07T20:43:37.695Z,100265.19
2023-01-07T20:46:06.573Z,100267.16
2023-01-07T20:48:34.516Z,100265.45
2023-01-07T20:51:06.560Z,100264.30
2023-01-07T20:53:35.906Z,100267.14
2023-01-07T20:56:05.042Z,100266.80
2023-01-07T20:58:33.910Z,100269.36
2023-01-07T21:01:05.634Z,100266.98
2023-01-07T21:03:34.317Z,100262.92
2023-01-07T21:06:02.080Z,100263.15
2023-01-07T21:08:29.850Z,100265.59
2023-01-07T21:10:57.581Z,100272.23
2023-01-07T21:13:25.704Z,100271.44
2023-01-07T21:15:53.462Z,100268.45
2023-01-07T21:18:21.956Z,100264.11
2023-01-07T21:20:49.677Z,100255.71
2023-01-07T21:23:17.407Z,100254.52
2023-01-07T21:25:48.835Z,100253.23
2023-01-07T21:28:16.601Z,100254.59
2023-01-07T21:30:44.398Z,100249.25
2023-01-07T21:33:12.155Z,100248.27
2023-01-07T21:35:40.880Z,100241.41
2023-01-07T21:38:08.617Z,100239.96
2023-01-07T21:40:38.098Z,100238.38
2023-01-07T21:43:06.146Z,100243.36
2023-01-07T21:45:33.935Z,100238.63
2023-01-07T21:48:01.836Z,100235.81
2023-01-07T21:50:29.719Z,100238.04
2023-01-07T21:52:57.930Z,100239.67
2023-01-07T21:55:25.657Z,100241.44
2023-01-07T21:57:53.351Z,100235.91
2023-01-07T22:00:21.072Z,100233.69
2023-01-07T22:02:48.808Z,100235.73
2023-01-07T22:05:16.698Z,100237.50
2023-01-07T22:07:44.644Z,100239.80
2023-01-07T22:10:12.376Z,100235.01
2023-01-07T22:12:40.131Z,100234.81
2023-01-07T22:15:08.220Z,100230.46
2023-01-07T22:17:35.989Z,100224.37
2023-01-07T22:20:04.005Z,100224.91
2023-01-07T22:22:31.834Z,100222.39
2023-01-07T22:24:59.609Z,100227.39
2023-01-07T22:27:27.402Z,100231.87
2023-01-07T22:29:55.857Z,100230.95
2023-01-07T22:32:23.583Z,100230.30
2023-01-07T22:34:51.305Z,100224.86
2023-01-07T22:37:20.346Z,100223.21
2023-01-07T22:39:51.836Z,100220.84
2023-01-07T22:42:23.180Z,100218.80
2023-01-07T22:44:54.144Z,100220.31
2023-01-07T22:47:29.475Z,100217.48
2023-01-07T22:49:59.238Z,100215.30
2023-01-07T22:52:27.084Z,100211.95
2023-01-07T22:54:55.853Z,100206.77
2023-01-07T22:57:23.824Z,100210.42
2023-01-07T22:59:51.603Z,100205.70
2023-01-07T23:02:19.447Z,100203.50
2023-01-07T23:04:47.382Z,100204.50
2023-01-07T23:07:15.088Z,100205.60
2023-01-07T23:09:42.801Z,100203.89
2023-01-07T23:12:11.685Z,100196.77
2023-01-07T23:14:39.395Z,100193.84
2023-01-07T23:17:07.141Z,100192.45
2023-01-07T23:19:35.650Z,100193.67
2023-01-07T23:22:03.379Z,100191.89
2023-01-07T23:24:31.129Z,100186.31
2023-01-07T23:26:58.972Z,100186.30
2023-01-07T23:29:26.728Z,100184.70
2023-01-07T23:31:54.791Z,100187.48
2023-01-07T23:34:22.625Z,100185.66
2023-01-07T23:36:50.385Z,100185.67
2023-01-07T23:39:18.144Z,100180.64
2023-01-07T23:41:45.900Z,100177.84
2023-01-07T23:44:13.813Z,100171.31
2023-01-07T23:46:41.575Z,100172.77
2023-01-07T23:49:09.317Z,100172.90
2023-01-07T23:51:37.014Z,100171.35
2023-01-07T23:54:04.743Z,100163.01
2023-01-07T23:56:32.543Z,100158.50
2023-01-07T23:59:02.833Z,100155.02
